createdAt,value
2023-10-08T00:01:23.125Z,65.10
2023-10-08T00:03:52.487Z,66.38
2023-10-08T00:06:22.662Z,65.53
2023-10-08T00:08:50.717Z,66.17
2023-10-08T00:11:18.997Z,66.17
2023-10-08T00:13:46.381Z,66.92
2023-10-08T00:16:19.013Z,66.18
2023-10-08T00:18:52.243Z,67.23
2023-10-08T00:21:27.274Z,66.75
2023-10-08T00:24:00.427Z,66.50
2023-10-08T00:26:31.778Z,66.24
2023-10-08T00:29:22.989Z,67.97
2023-10-08T00:31:51.360Z,67.62
2023-10-08T00:34:22.811Z,66.23
2023-10-08T00:36:50.595Z,66.35
2023-10-08T00:39:25.378Z,65.85
2023-10-08T00:42:00.106Z,66.02
2023-10-08T00:44:32.057Z,65.83
2023-10-08T00:47:02.679Z,65.30
2023-10-08T00:49:43.381Z,65.26
2023-10-08T00:52:13.251Z,64.52
2023-10-08T00:54:55.911Z,65.52
2023-10-08T00:57:26.817Z,66.24
2023-10-08T00:59:55.004Z,66.47
2023-10-08T01:02:32.160Z,66.17
2023-10-08T01:05:01.558Z,66.06
2023-10-08T01:07:32.140Z,64.85
2023-10-08T01:10:06.987Z,64.91
2023-10-08T01:12:34.010Z,65.84
2023-10-08T01:15:17.424Z,66.47
2023-10-08T01:18:01.098Z,65.30
2023-10-08T01:20:35.587Z,65.53
2023-10-08T01:23:14.535Z,64.87
2023-10-08T01:25:43.418Z,65.04
2023-10-08T01:28:19.546Z,65.80
2023-10-08T01:30:48.259Z,66.37
2023-10-08T01:33:19.188Z,66.93
2023-10-08T01:35:46.476Z,65.22
2023-10-08T01:38:17.690Z,66.45
2023-10-08T01:40:51.660Z,65.85
2023-10-08T01:43:20.263Z,64.98
2023-10-08T01:45:53.026Z,65.31
2023-10-08T01:48:29.354Z,65.49
2023-10-08T01:50:59.923Z,65.76
2023-10-08T01:53:27.880Z,65.98
2023-10-08T01:55:56.334Z,65.34
2023-10-08T01:58:26.354Z,66.04
2023-10-08T02:00:59.935Z,67.00
2023-10-08T02:03:28.911Z,66.50
2023-10-08T02:06:00.371Z,66.21
2023-10-08T02:08:27.885Z,66.68
2023-10-08T02:10:55.281Z,67.66
2023-10-08T02:13:22.606Z,67.66
2023-10-08T02:15:53.514Z,68.26
2023-10-08T02:18:24.816Z,68.59
2023-10-08T02:20:54.020Z,67.71
2023-10-08T02:23:29.306Z,67.83
2023-10-08T02:25:56.742Z,68.42
2023-10-08T02:28:25.712Z,68.29
2023-10-08T02:30:53.162Z,67.92
2023-10-08T02:33:21.361Z,69.16
2023-10-08T02:35:48.923Z,69.22
2023-10-08T02:38:20.000Z,69.61
2023-10-08T02:40:50.050Z,68.66
2023-10-08T02:43:19.130Z,69.42
2023-10-08T02:45:48.857Z,69.86
2023-10-08T02:48:17.501Z,70.53
2023-10-08T02:50:47.991Z,70.61
2023-10-08T02:53:24.916Z,70.38
2023-10-08T02:55:52.250Z,70.42
2023-10-08T02:58:22.114Z,69.99
2023-10-08T03:00:50.696Z,71.00
2023-10-08T03:03:23.715Z,70.33
2023-10-08T03:05:53.091Z,70.54
2023-10-08T03:08:24.372Z,71.13
2023-10-08T03:11:04.713Z,71.80
2023-10-08T03:13:32.231Z,71.55
2023-10-08T03:16:02.447Z,70.84
2023-10-08T03:18:44.209Z,71.71
2023-10-08T03:21:32.200Z,72.03
2023-10-08T03:23:59.677Z,72.67
2023-10-08T03:26:32.775Z,73.51
2023-10-08T03:29:16.604Z,73.31
2023-10-08T03:31:47.775Z,73.15
2023-10-08T03:34:28.387Z,72.48
2023-10-08T03:37:07.015Z,72.91
2023-10-08T03:39:53.301Z,73.60
2023-10-08T03:42:24.397Z,73.38
2023-10-08T03:44:57.332Z,73.68
2023-10-08T03:47:27.915Z,73.41
2023-10-08T03:49:55.620Z,73.38
2023-10-08T03:52:27.555Z,74.66
2023-10-08T03:55:26.988Z,75.04
2023-10-08T03:58:05.292Z,74.75
2023-10-08T04:00:42.380Z,75.20
2023-10-08T04:03:12.679Z,74.77
2023-10-08T04:06:00.772Z,74.53
2023-10-08T04:08:59.531Z,73.95
2023-10-08T04:11:33.618Z,74.52
2023-10-08T04:14:03.842Z,75.13
2023-10-08T04:16:33.092Z,75.90
2023-10-08T04:19:04.682Z,76.15
2023-10-08T04:21:35.193Z,75.85
2023-10-08T04:24:09.513Z,76.28
2023-10-08T04:26:36.934Z,75.39
2023-10-08T04:29:04.066Z,76.18
2023-10-08T04:31:38.346Z,76.70
2023-10-08T04:34:24.652Z,76.65
2023-10-08T04:36:55.504Z,76.27
2023-10-08T04:39:22.930Z,76.36
2023-10-08T04:41:55.362Z,75.08
2023-10-08T04:44:23.068Z,74.81
2023-10-08T04:46:53.631Z,75.14
2023-10-08T04:49:30.515Z,76.00
2023-10-08T04:52:00.346Z,75.92
2023-10-08T04:54:31.550Z,74.65
2023-10-08T04:57:06.259Z,75.09
2023-10-08T04:59:35.263Z,75.43
2023-10-08T05:02:30.957Z,74.64
2023-10-08T05:05:13.350Z,74.24
2023-10-08T05:08:00.585Z,73.67
2023-10-08T05:10:28.428Z,74.66
2023-10-08T05:13:05.307Z,74.58
2023-10-08T05:15:48.516Z,75.31
2023-10-08T05:18:18.473Z,73.30
2023-10-08T05:20:52.138Z,73.36
2023-10-08T05:23:30.209Z,74.51
2023-10-08T05:26:08.003Z,73.95
2023-10-08T05:28:47.768Z,73.38
2023-10-08T05:31:17.978Z,72.19
2023-10-08T05:34:03.782Z,71.02
2023-10-08T05:36:49.650Z,70.31
2023-10-08T05:39:33.407Z,69.57
2023-10-08T05:42:19.930Z,69.01
2023-10-08T05:45:06.743Z,67.99
2023-10-08T05:47:34.527Z,67.42
2023-10-08T05:50:18.203Z,66.84
2023-10-08T05:53:12.081Z,65.41
2023-10-08T05:55:48.755Z,64.49
2023-10-08T05:58:15.974Z,64.03
2023-10-08T06:01:03.663Z,63.59
2023-10-08T06:03:34.436Z,62.58
2023-10-08T06:06:13.333Z,62.11
2023-10-08T06:08:52.833Z,63.56
2023-10-08T06:11:38.646Z,63.49
2023-10-08T06:14:14.610Z,62.74
2023-10-08T06:16:43.228Z,62.53
2023-10-08T06:19:17.351Z,61.94
2023-10-08T06:21:44.568Z,61.45
2023-10-08T06:24:11.632Z,61.29
2023-10-08T06:26:46.416Z,61.29
2023-10-08T06:29:20.296Z,61.47
2023-10-08T06:31:56.178Z,61.55
2023-10-08T06:34:26.199Z,62.49
2023-10-08T06:36:57.479Z,61.51
2023-10-08T06:39:48.454Z,61.16
2023-10-08T06:42:17.329Z,60.40
2023-10-08T06:44:47.705Z,60.18
2023-10-08T06:47:17.504Z,60.14
2023-10-08T06:49:45.168Z,59.28
2023-10-08T06:52:14.092Z,59.20
2023-10-08T06:54:41.214Z,59.46
2023-10-08T06:57:15.166Z,58.53
2023-10-08T06:59:44.064Z,57.57
2023-10-08T07:02:12.126Z,57.79
2023-10-08T07:04:41.135Z,56.84
2023-10-08T07:07:10.757Z,56.37
2023-10-08T07:09:37.712Z,56.70
2023-10-08T07:12:07.454Z,55.69
2023-10-08T07:14:35.185Z,54.72
2023-10-08T07:17:03.089Z,54.91
2023-10-08T07:19:34.312Z,54.56
2023-10-08T07:22:05.367Z,54.57
2023-10-08T07:24:36.051Z,53.66
2023-10-08T07:27:09.950Z,52.87
2023-10-08T07:29:37.663Z,52.75
2023-10-08T07:32:11.223Z,52.57
2023-10-08T07:34:39.580Z,52.92
2023-10-08T07:37:12.655Z,52.13
2023-10-08T07:39:47.974Z,51.34
2023-10-08T07:42:15.360Z,50.50
2023-10-08T07:44:42.773Z,50.66
2023-10-08T07:47:13.601Z,50.74
2023-10-08T07:49:44.236Z,50.78
2023-10-08T07:52:16.986Z,49.09
2023-10-08T07:54:45.706Z,49.47
2023-10-08T07:57:18.693Z,49.24
2023-10-08T07:59:49.866Z,48.25
2023-10-08T08:02:19.415Z,48.16
2023-10-08T08:04:52.101Z,47.32
2023-10-08T08:07:23.401Z,47.25
2023-10-08T08:09:53.349Z,47.52
2023-10-08T08:12:24.029Z,47.65
2023-10-08T08:14:52.770Z,46.62
2023-10-08T08:17:20.715Z,46.28
2023-10-08T08:19:50.020Z,46.34
2023-10-08T08:22:22.733Z,44.47
2023-10-08T08:24:58.733Z,42.97
2023-10-08T08:27:49.873Z,36.85
2023-10-08T08:30:17.298Z,35.29
2023-10-08T08:32:53.072Z,35.11
2023-10-08T08:35:21.158Z,35.05
2023-10-08T08:37:50.953Z,34.23
2023-10-08T08:40:25.985Z,33.67
2023-10-08T08:42:54.038Z,33.67
2023-10-08T08:45:23.917Z,33.12
2023-10-08T08:47:53.145Z,33.29
2023-10-08T08:50:22.643Z,33.04
2023-10-08T08:52:52.947Z,32.36
2023-10-08T08:55:22.049Z,33.77
2023-10-08T08:57:52.365Z,33.39
2023-10-08T09:00:20.962Z,33.35
2023-10-08T09:02:50.668Z,32.83
2023-10-08T09:05:28.237Z,32.69
2023-10-08T09:07:58.133Z,32.59
2023-10-08T09:10:30.414Z,33.46
2023-10-08T09:13:01.930Z,32.50
2023-10-08T09:15:29.773Z,33.61
2023-10-08T09:17:57.747Z,32.22
2023-10-08T09:20:25.090Z,31.69
2023-10-08T09:23:13.219Z,31.53
2023-10-08T09:25:42.477Z,31.15
2023-10-08T09:28:14.408Z,31.90
2023-10-08T09:30:46.284Z,31.60
2023-10-08T09:33:14.473Z,31.63
2023-10-08T09:35:44.727Z,30.99
2023-10-08T09:38:13.105Z,30.59
2023-10-08T09:40:42.940Z,31.18
2023-10-08T09:43:11.804Z,30.97
2023-10-08T09:45:42.617Z,30.67
2023-10-08T09:48:13.921Z,31.07
2023-10-08T09:50:42.975Z,30.60
2023-10-08T09:53:23.911Z,30.50
2023-10-08T09:55:58.416Z,30.94
2023-10-08T09:58:28.285Z,30.95
2023-10-08T10:00:58.683Z,30.10
2023-10-08T10:03:28.048Z,30.53
2023-10-08T10:06:00.130Z,30.63
2023-10-08T10:08:29.744Z,31.19
2023-10-08T10:11:01.280Z,30.72
2023-10-08T10:13:30.309Z,30.68
2023-10-08T10:15:58.475Z,31.38
2023-10-08T10:18:27.126Z,31.54
2023-10-08T10:21:14.420Z,31.65
2023-10-08T10:23:51.966Z,31.54
2023-10-08T10:26:27.439Z,30.44
2023-10-08T10:29:16.217Z,29.96
2023-10-08T10:31:54.725Z,30.32
2023-10-08T10:34:29.776Z,29.98
2023-10-08T10:37:19.497Z,30.09
2023-10-08T10:39:56.046Z,30.63
2023-10-08T10:42:24.009Z,31.82
2023-10-08T10:44:51.593Z,31.46
2023-10-08T10:47:19.593Z,32.09
2023-10-08T10:50:09.506Z,32.60
2023-10-08T10:52:51.816Z,32.57
2023-10-08T10:55:20.419Z,32.76
2023-10-08T10:58:12.726Z,32.58
2023-10-08T11:00:43.711Z,32.26
2023-10-08T11:03:17.489Z,32.51
2023-10-08T11:05:56.009Z,32.25
2023-10-08T11:08:24.698Z,31.55
2023-10-08T11:10:54.331Z,31.87
2023-10-08T11:13:23.120Z,31.67
2023-10-08T11:15:53.109Z,31.93
2023-10-08T11:18:23.173Z,31.58
2023-10-08T11:21:14.765Z,31.88
2023-10-08T11:23:54.109Z,31.83
2023-10-08T11:26:33.125Z,31.62
2023-10-08T11:29:02.062Z,31.93
2023-10-08T11:31:30.281Z,31.37
2023-10-08T11:34:10.571Z,31.20
2023-10-08T11:36:50.662Z,31.80
2023-10-08T11:39:24.336Z,31.78
2023-10-08T11:42:07.484Z,32.44
2023-10-08T11:44:38.314Z,33.23
2023-10-08T11:47:13.566Z,33.13
2023-10-08T11:49:58.305Z,32.55
2023-10-08T11:52:26.067Z,32.80
2023-10-08T11:54:54.736Z,32.84
2023-10-08T11:57:23.683Z,32.80
2023-10-08T11:59:54.250Z,32.51
2023-10-08T12:02:22.223Z,32.91
2023-10-08T12:04:49.731Z,32.96
2023-10-08T12:07:19.253Z,32.52
2023-10-08T12:09:49.886Z,32.79
2023-10-08T12:12:22.146Z,32.82
2023-10-08T12:14:51.086Z,33.09
2023-10-08T12:17:18.615Z,32.67
2023-10-08T12:19:46.397Z,32.32
2023-10-08T12:22:19.242Z,32.03
2023-10-08T12:24:46.517Z,31.84
2023-10-08T12:27:13.889Z,32.55
2023-10-08T12:29:41.350Z,32.53
2023-10-08T12:32:18.611Z,32.20
2023-10-08T12:34:46.384Z,32.70
2023-10-08T12:37:16.352Z,33.11
2023-10-08T12:40:01.296Z,32.59
2023-10-08T12:42:31.450Z,32.62
2023-10-08T12:44:58.875Z,33.05
2023-10-08T12:47:30.360Z,33.10
2023-10-08T12:49:58.805Z,33.38
2023-10-08T12:52:29.383Z,33.12
2023-10-08T12:54:59.500Z,33.44
2023-10-08T12:57:33.446Z,33.43
2023-10-08T13:00:01.650Z,32.85
2023-10-08T13:02:31.766Z,32.59
2023-10-08T13:05:00.893Z,32.95
2023-10-08T13:07:28.486Z,32.32
2023-10-08T13:09:55.666Z,32.19
2023-10-08T13:12:22.747Z,32.00
2023-10-08T13:14:50.755Z,32.19
2023-10-08T13:17:18.040Z,31.64
2023-10-08T13:19:47.088Z,32.32
2023-10-08T13:22:21.092Z,32.20
2023-10-08T13:24:50.079Z,32.62
2023-10-08T13:27:17.860Z,33.15
2023-10-08T13:29:45.055Z,32.71
2023-10-08T13:32:18.641Z,32.61
2023-10-08T13:34:47.400Z,32.58
2023-10-08T13:37:17.523Z,32.66
2023-10-08T13:39:44.652Z,32.62
2023-10-08T13:42:17.999Z,32.84
2023-10-08T13:44:46.501Z,33.29
2023-10-08T13:47:16.543Z,33.14
2023-10-08T13:49:44.450Z,32.91
2023-10-08T13:52:12.019Z,33.45
2023-10-08T13:54:43.230Z,33.38
2023-10-08T13:57:16.200Z,33.78
2023-10-08T13:59:44.016Z,33.30
2023-10-08T14:02:22.811Z,33.12
2023-10-08T14:04:51.661Z,33.24
2023-10-08T14:07:20.004Z,33.53
2023-10-08T14:09:47.668Z,32.98
2023-10-08T14:12:15.796Z,33.27
2023-10-08T14:14:47.843Z,33.44
2023-10-08T14:17:16.500Z,33.45
2023-10-08T14:19:47.969Z,33.54
2023-10-08T14:22:16.588Z,33.91
2023-10-08T14:24:47.338Z,33.80
2023-10-08T14:27:17.586Z,33.89
2023-10-08T14:29:45.769Z,33.71
2023-10-08T14:32:13.245Z,33.72
2023-10-08T14:34:56.151Z,34.13
2023-10-08T14:37:43.049Z,33.62
2023-10-08T14:40:29.333Z,33.44
2023-10-08T14:42:59.872Z,33.69
2023-10-08T14:45:36.974Z,34.09
2023-10-08T14:48:12.938Z,33.94
2023-10-08T14:50:42.192Z,33.63
2023-10-08T14:53:09.260Z,34.10
2023-10-08T14:55:37.786Z,33.70
2023-10-08T14:58:12.220Z,34.15
2023-10-08T15:00:40.846Z,34.12
2023-10-08T15:03:09.943Z,34.17
2023-10-08T15:05:38.813Z,34.76
2023-10-08T15:08:11.707Z,34.45
2023-10-08T15:10:40.333Z,34.77
2023-10-08T15:13:09.397Z,35.08
2023-10-08T15:15:37.134Z,34.58
2023-10-08T15:18:04.755Z,35.03
2023-10-08T15:20:33.516Z,35.29
2023-10-08T15:23:01.569Z,35.17
2023-10-08T15:25:28.716Z,35.41
2023-10-08T15:27:55.831Z,35.66
2023-10-08T15:30:23.266Z,35.86
2023-10-08T15:32:51.291Z,35.79
2023-10-08T15:35:25.596Z,35.86
2023-10-08T15:37:55.669Z,36.12
2023-10-08T15:40:24.022Z,36.33
2023-10-08T15:42:54.706Z,36.38
2023-10-08T15:45:24.374Z,36.45
2023-10-08T15:47:52.961Z,36.55
2023-10-08T15:50:26.856Z,37.18
2023-10-08T15:52:56.274Z,37.11
2023-10-08T15:55:25.143Z,37.16
2023-10-08T15:57:56.257Z,37.19
2023-10-08T16:00:24.325Z,37.74
2023-10-08T16:02:52.214Z,37.75
2023-10-08T16:05:19.833Z,37.79
2023-10-08T16:07:47.559Z,37.89
2023-10-08T16:10:15.029Z,38.15
2023-10-08T16:12:43.188Z,38.70
2023-10-08T16:15:10.838Z,38.36
2023-10-08T16:17:40.692Z,38.69
2023-10-08T16:20:15.577Z,38.48
2023-10-08T16:22:45.704Z,39.19
2023-10-08T16:25:17.047Z,39.37
2023-10-08T16:27:49.785Z,39.81
2023-10-08T16:30:27.231Z,40.53
2023-10-08T16:32:58.421Z,40.21
2023-10-08T16:35:26.392Z,40.50
2023-10-08T16:37:55.011Z,40.59
2023-10-08T16:40:22.257Z,41.12
2023-10-08T16:42:50.167Z,41.20
2023-10-08T16:45:21.609Z,41.17
2023-10-08T16:47:49.591Z,41.60
2023-10-08T16:50:18.474Z,41.63
2023-10-08T16:52:47.139Z,41.66
2023-10-08T16:55:15.116Z,41.76
2023-10-08T16:57:42.943Z,42.21
2023-10-08T17:00:13.744Z,42.68
2023-10-08T17:02:41.948Z,42.81
2023-10-08T17:05:15.727Z,43.08
2023-10-08T17:07:46.817Z,43.69
2023-10-08T17:10:15.959Z,43.85
2023-10-08T17:12:44.173Z,43.72
2023-10-08T17:15:14.546Z,43.76
2023-10-08T17:17:42.647Z,44.30
2023-10-08T17:20:11.047Z,44.66
2023-10-08T17:22:39.345Z,44.76
2023-10-08T17:25:07.602Z,45.05
2023-10-08T17:27:36.234Z,45.20
2023-10-08T17:30:07.499Z,45.45
2023-10-08T17:32:36.850Z,45.57
2023-10-08T17:35:07.860Z,45.70
2023-10-08T17:37:38.792Z,46.34
2023-10-08T17:40:12.765Z,46.34
2023-10-08T17:42:41.134Z,46.80
2023-10-08T17:45:10.166Z,47.04
2023-10-08T17:47:38.881Z,47.30
2023-10-08T17:50:08.653Z,47.97
2023-10-08T17:52:36.046Z,48.06
2023-10-08T17:55:07.725Z,47.75
2023-10-08T17:57:35.676Z,48.39
2023-10-08T18:00:11.824Z,48.25
2023-10-08T18:02:41.993Z,48.51
2023-10-08T18:05:16.813Z,48.65
2023-10-08T18:07:51.049Z,48.64
2023-10-08T18:10:21.866Z,48.96
2023-10-08T18:12:49.303Z,49.10
2023-10-08T18:15:17.246Z,49.02
2023-10-08T18:17:45.671Z,49.27
2023-10-08T18:20:20.220Z,49.13
2023-10-08T18:22:52.068Z,49.02
2023-10-08T18:25:20.177Z,49.28
2023-10-08T18:27:47.958Z,49.86
2023-10-08T18:30:15.608Z,49.58
2023-10-08T18:32:44.376Z,49.55
2023-10-08T18:35:14.041Z,49.81
2023-10-08T18:37:41.605Z,49.93
2023-10-08T18:40:15.692Z,49.70
2023-10-08T18:42:44.280Z,49.71
2023-10-08T18:45:13.142Z,50.15
2023-10-08T18:47:42.176Z,50.23
2023-10-08T18:50:15.537Z,49.77
2023-10-08T18:52:43.998Z,49.87
2023-10-08T18:55:11.570Z,50.24
2023-10-08T18:57:39.451Z,50.70
2023-10-08T19:00:11.397Z,50.65
2023-10-08T19:02:41.291Z,50.56
2023-10-08T19:05:09.810Z,50.59
2023-10-08T19:07:38.559Z,50.76
2023-10-08T19:10:07.420Z,50.65
2023-10-08T19:12:37.796Z,50.92
2023-10-08T19:15:09.617Z,51.28
2023-10-08T19:17:37.996Z,50.93
2023-10-08T19:20:09.499Z,51.06
2023-10-08T19:22:37.054Z,51.15
2023-10-08T19:25:05.187Z,51.14
2023-10-08T19:27:32.869Z,51.15
2023-10-08T19:30:07.379Z,50.98
2023-10-08T19:32:36.182Z,51.27
2023-10-08T19:35:04.912Z,51.24
2023-10-08T19:37:32.308Z,51.54
2023-10-08T19:40:11.177Z,51.67
2023-10-08T19:42:40.316Z,51.67
2023-10-08T19:45:16.273Z,52.71
2023-10-08T19:47:47.493Z,52.13
2023-10-08T19:50:21.168Z,52.67
2023-10-08T19:52:50.642Z,52.58
2023-10-08T19:55:18.251Z,52.04
2023-10-08T19:57:45.642Z,52.92
2023-10-08T20:00:16.078Z,52.67
2023-10-08T20:02:47.084Z,52.92
2023-10-08T20:05:15.771Z,52.81
2023-10-08T20:07:45.352Z,53.28
2023-10-08T20:10:16.470Z,53.28
2023-10-08T20:12:48.965Z,53.12
2023-10-08T20:15:35.220Z,53.14
2023-10-08T20:18:02.589Z,53.62
2023-10-08T20:20:31.232Z,53.65
2023-10-08T20:22:58.522Z,53.62
2023-10-08T20:25:31.687Z,53.78
2023-10-08T20:27:58.841Z,54.25
2023-10-08T20:30:26.792Z,54.00
2023-10-08T20:32:54.196Z,53.84
2023-10-08T20:35:26.376Z,54.39
2023-10-08T20:37:56.095Z,54.03
2023-10-08T20:40:30.265Z,54.16
2023-10-08T20:42:57.825Z,54.06
2023-10-08T20:45:28.342Z,53.71
2023-10-08T20:47:57.764Z,54.36
2023-10-08T20:50:33.378Z,53.44
2023-10-08T20:53:03.164Z,53.97
2023-10-08T20:55:38.155Z,53.96
2023-10-08T20:58:08.861Z,54.33
2023-10-08T21:00:39.200Z,53.94
2023-10-08T21:03:09.484Z,54.19
2023-10-08T21:05:39.821Z,54.03
2023-10-08T21:08:08.244Z,54.34
2023-10-08T21:10:57.390Z,54.69
2023-10-08T21:13:26.711Z,54.27
2023-10-08T21:15:54.858Z,54.11
2023-10-08T21:18:24.415Z,53.90
2023-10-08T21:20:52.341Z,53.80
2023-10-08T21:23:19.608Z,54.39
2023-10-08T21:25:47.091Z,53.91
2023-10-08T21:28:14.955Z,54.14
2023-10-08T21:30:42.796Z,53.75
2023-10-08T21:33:11.075Z,54.12
2023-10-08T21:35:39.637Z,54.25
2023-10-08T21:38:09.581Z,54.51
2023-10-08T21:40:37.732Z,54.70
2023-10-08T21:43:05.608Z,54.49
2023-10-08T21:45:33.063Z,54.48
2023-10-08T21:48:01.883Z,54.32
2023-10-08T21:50:29.571Z,54.28
2023-10-08T21:52:56.588Z,54.34
2023-10-08T21:55:24.999Z,54.22
2023-10-08T21:57:51.996Z,54.71
2023-10-08T22:00:25.223Z,54.90
2023-10-08T22:03:00.355Z,54.63
2023-10-08T22:05:31.421Z,54.91
2023-10-08T22:07:59.873Z,55.13
2023-10-08T22:10:29.740Z,55.44
2023-10-08T22:13:00.267Z,55.40
2023-10-08T22:15:28.992Z,55.41
2023-10-08T22:18:03.071Z,55.76
2023-10-08T22:20:39.619Z,56.11
2023-10-08T22:23:22.396Z,55.78
2023-10-08T22:25:54.768Z,56.11
2023-10-08T22:28:25.126Z,56.31
2023-10-08T22:30:56.277Z,56.20
2023-10-08T22:33:34.964Z,55.80
2023-10-08T22:36:16.278Z,56.78
2023-10-08T22:38:49.549Z,56.79
2023-10-08T22:41:16.771Z,56.66
2023-10-08T22:43:44.573Z,56.50
2023-10-08T22:46:12.774Z,56.64
2023-10-08T22:48:44.613Z,56.79
2023-10-08T22:51:23.957Z,56.56
2023-10-08T22:53:52.766Z,57.10
2023-10-08T22:56:20.364Z,57.13
2023-10-08T22:58:49.260Z,56.85
2023-10-08T23:01:22.083Z,57.00
2023-10-08T23:03:52.025Z,56.81
2023-10-08T23:06:25.363Z,57.40
2023-10-08T23:08:54.809Z,57.46
2023-10-08T23:11:22.065Z,57.44
2023-10-08T23:13:51.518Z,58.07
2023-10-08T23:16:21.930Z,58.24
2023-10-08T23:18:52.331Z,58.53
2023-10-08T23:21:22.280Z,58.48
2023-10-08T23:23:49.963Z,58.64
2023-10-08T23:26:17.940Z,58.03
2023-10-08T23:28:47.980Z,58.79
2023-10-08T23:31:16.178Z,58.53
2023-10-08T23:33:48.843Z,58.65
2023-10-08T23:36:28.357Z,59.07
2023-10-08T23:39:08.374Z,58.41
2023-10-08T23:41:48.754Z,58.40
2023-10-08T23:44:26.472Z,58.13
2023-10-08T23:47:04.558Z,58.75
2023-10-08T23:49:31.998Z,58.45
2023-10-08T23:52:01.691Z,58.37
2023-10-08T23:54:34.887Z,59.04
2023-10-08T23:57:08.005Z,58.49
2023-10-08T23:59:41.944Z,58.90
